This is the latest recevied weather packets stored in our database for station/object G4GVZ-1. If no packets are shown the sender has not sent any weather packets the latest 10 day(s).
| Time | Temp. | Humidity | Pressure | Rain* | Wind** | Luminosity | Snow |
|---|---|---|---|---|---|---|---|
| 1777658449 | 15.56° C | 79% | 1018.3 hPa | 0 mm | - | - | - |
| 1777657548 | 15.56° C | 79% | 1018.3 hPa | 0 mm | - | - | - |
| 1777656648 | 15.56° C | 77% | 1018.4 hPa | 0 mm | - | - | - |
| 1777655748 | 15.56° C | 75% | 1018.4 hPa | 0 mm | - | - | - |
| 1777654848 | 16.11° C | 75% | 1018.4 hPa | 0 mm | - | - | - |
| 1777653947 | 16.11° C | 75% | 1018.4 hPa | 0 mm | - | - | - |
| 1777652149 | 15.56° C | 80% | 1018.4 hPa | 0 mm | - | - | - |
| 1777651249 | 15.56° C | 78% | 1018.5 hPa | 0 mm | - | - | - |
| 1777650348 | 15.56° C | 80% | 1018.6 hPa | 0 mm | - | - | - |
| 1777649448 | 15.56° C | 79% | 1018.6 hPa | 0 mm | - | - | - |
| 1777648548 | 15° C | 79% | 1018.7 hPa | 0 mm | - | - | - |
| 1777647650 | 15° C | 79% | 1018.7 hPa | 0 mm | - | - | - |
| 1777646749 | 15.56° C | 75% | 1018.7 hPa | 0 mm | - | - | - |
| 1777645850 | 17.78° C | 66% | 1018.7 hPa | 0 mm | - | - | - |
| 1777644951 | 17.78° C | 66% | 1018.6 hPa | 0 mm | - | - | - |
| 1777644049 | 18.89° C | 62% | 1018.6 hPa | 0 mm | - | - | - |
| 1777643149 | 20.56° C | 59% | 1018.5 hPa | 0 mm | - | - | - |
| 1777642249 | 21.11° C | 60% | 1018.3 hPa | 0 mm | - | - | - |
| 1777641349 | 21.11° C | 60% | 1018.3 hPa | 0 mm | - | - | - |
| 1777640448 | 21.67° C | 60% | 1018.2 hPa | 0 mm | - | - | - |
| 1777639550 | 21.67° C | 60% | 1018.3 hPa | 0 mm | - | - | - |
| 1777638650 | 21.11° C | 59% | 1018.4 hPa | 0 mm | - | - | - |
| 1777637752 | 21.11° C | 60% | 1018.3 hPa | 0 mm | - | - | - |
| 1777636850 | 20.56° C | 58% | 1018.4 hPa | 0 mm | - | - | - |
| 1777635949 | 21.11° C | 58% | 1018.4 hPa | 0 mm | - | - | - |
* Rain latest hour (hover to see other rain measurements)
** Current wind speed in m/s (hover to see current wind gust speed)